sensor_id;sensor_type;location;lat;lon;timestamp;temperature;humidity
42907;DHT22;28552;51.146;6.576;2023-02-11T00:00:39;6.40;99.90
42907;DHT22;28552;51.146;6.576;2023-02-11T00:03:40;6.40;99.90
42907;DHT22;28552;51.146;6.576;2023-02-11T00:06:40;6.40;99.90
42907;DHT22;28552;51.146;6.576;2023-02-11T00:09:41;6.30;99.90
42907;DHT22;28552;51.146;6.576;2023-02-11T00:12:41;6.30;99.90
42907;DHT22;28552;51.146;6.576;2023-02-11T00:15:42;6.30;99.90
42907;DHT22;28552;51.146;6.576;2023-02-11T00:18:43;6.30;99.90
42907;DHT22;28552;51.146;6.576;2023-02-11T00:21:44;6.20;99.90
42907;DHT22;28552;51.146;6.576;2023-02-11T00:24:44;6.20;99.90
42907;DHT22;28552;51.146;6.576;2023-02-11T00:27:45;6.10;99.90
42907;DHT22;28552;51.146;6.576;2023-02-11T00:30:53;6.00;99.90
42907;DHT22;28552;51.146;6.576;2023-02-11T00:33:54;5.90;99.90
42907;DHT22;28552;51.146;6.576;2023-02-11T00:36:55;5.90;99.90
42907;DHT22;28552;51.146;6.576;2023-02-11T00:39:55;5.80;99.90
42907;DHT22;28552;51.146;6.576;2023-02-11T00:42:56;5.70;99.90
42907;DHT22;28552;51.146;6.576;2023-02-11T00:45:56;5.60;99.90
42907;DHT22;28552;51.146;6.576;2023-02-11T00:48:57;5.60;99.90
42907;DHT22;28552;51.146;6.576;2023-02-11T00:51:57;5.50;99.90
42907;DHT22;28552;51.146;6.576;2023-02-11T00:54:58;5.40;99.90
42907;DHT22;28552;51.146;6.576;2023-02-11T00:57:58;5.40;99.90
42907;DHT22;28552;51.146;6.576;2023-02-11T01:00:59;5.40;99.90
42907;DHT22;28552;51.146;6.576;2023-02-11T01:04:00;5.30;99.90
42907;DHT22;28552;51.146;6.576;2023-02-11T01:07:00;5.40;99.90
42907;DHT22;28552;51.146;6.576;2023-02-11T01:10:01;5.40;99.90
42907;DHT22;28552;51.146;6.576;2023-02-11T01:13:01;5.40;99.90
42907;DHT22;28552;51.146;6.576;2023-02-11T01:16:05;5.40;99.90
42907;DHT22;28552;51.146;6.576;2023-02-11T01:19:06;5.40;99.90
42907;DHT22;28552;51.146;6.576;2023-02-11T01:22:07;5.40;99.90
42907;DHT22;28552;51.146;6.576;2023-02-11T01:25:07;5.40;99.90
42907;DHT22;28552;51.146;6.576;2023-02-11T01:28:16;5.40;99.90
42907;DHT22;28552;51.146;6.576;2023-02-11T01:31:16;5.30;99.90
42907;DHT22;28552;51.146;6.576;2023-02-11T01:34:17;5.30;99.90
42907;DHT22;28552;51.146;6.576;2023-02-11T01:37:17;5.30;99.90
42907;DHT22;28552;51.146;6.576;2023-02-11T01:40:18;5.30;99.90
42907;DHT22;28552;51.146;6.576;2023-02-11T01:43:19;5.30;99.90
42907;DHT22;28552;51.146;6.576;2023-02-11T01:46:37;5.30;99.90
42907;DHT22;28552;51.146;6.576;2023-02-11T01:49:39;5.30;99.90
42907;DHT22;28552;51.146;6.576;2023-02-11T01:52:41;5.30;99.90
42907;DHT22;28552;51.146;6.576;2023-02-11T01:55:42;5.30;99.90
42907;DHT22;28552;51.146;6.576;2023-02-11T01:59:02;5.30;99.90
42907;DHT22;28552;51.146;6.576;2023-02-11T02:02:07;5.30;99.90
42907;DHT22;28552;51.146;6.576;2023-02-11T02:08:27;5.50;99.90
42907;DHT22;28552;51.146;6.576;2023-02-11T02:11:30;5.50;99.90
42907;DHT22;28552;51.146;6.576;2023-02-11T02:14:31;5.60;99.90
42907;DHT22;28552;51.146;6.576;2023-02-11T02:17:37;5.60;99.90
42907;DHT22;28552;51.146;6.576;2023-02-11T02:24:31;5.60;99.90
42907;DHT22;28552;51.146;6.576;2023-02-11T02:27:44;5.60;99.90
42907;DHT22;28552;51.146;6.576;2023-02-11T02:34:29;5.60;99.90
42907;DHT22;28552;51.146;6.576;2023-02-11T02:37:41;5.60;99.90
42907;DHT22;28552;51.146;6.576;2023-02-11T02:40:49;5.60;99.90
42907;DHT22;28552;51.146;6.576;2023-02-11T02:43:51;5.60;99.90
42907;DHT22;28552;51.146;6.576;2023-02-11T02:46:52;5.60;99.90
42907;DHT22;28552;51.146;6.576;2023-02-11T02:49:53;5.60;99.90
42907;DHT22;28552;51.146;6.576;2023-02-11T02:53:00;5.70;99.90
42907;DHT22;28552;51.146;6.576;2023-02-11T03:09:36;5.80;99.90
42907;DHT22;28552;51.146;6.576;2023-02-11T03:12:39;5.80;99.90
42907;DHT22;28552;51.146;6.576;2023-02-11T03:15:43;5.80;99.90
42907;DHT22;28552;51.146;6.576;2023-02-11T03:18:49;5.80;99.90
42907;DHT22;28552;51.146;6.576;2023-02-11T03:21:52;5.80;99.90
42907;DHT22;28552;51.146;6.576;2023-02-11T03:24:54;5.80;99.90
42907;DHT22;28552;51.146;6.576;2023-02-11T03:28:08;5.80;99.90
42907;DHT22;28552;51.146;6.576;2023-02-11T03:34:26;5.80;99.90
42907;DHT22;28552;51.146;6.576;2023-02-11T03:40:38;5.80;99.90
42907;DHT22;28552;51.146;6.576;2023-02-11T03:43:43;5.90;99.90
42907;DHT22;28552;51.146;6.576;2023-02-11T03:46:49;5.90;99.90
42907;DHT22;28552;51.146;6.576;2023-02-11T03:49:51;5.90;99.90
42907;DHT22;28552;51.146;6.576;2023-02-11T03:52:54;5.90;99.90
42907;DHT22;28552;51.146;6.576;2023-02-11T03:55:56;5.90;99.90
42907;DHT22;28552;51.146;6.576;2023-02-11T03:58:58;5.90;99.90
42907;DHT22;28552;51.146;6.576;2023-02-11T04:01:58;5.90;99.90
42907;DHT22;28552;51.146;6.576;2023-02-11T04:05:00;5.90;99.90
42907;DHT22;28552;51.146;6.576;2023-02-11T04:08:01;5.90;99.90
42907;DHT22;28552;51.146;6.576;2023-02-11T04:11:01;5.90;99.90
42907;DHT22;28552;51.146;6.576;2023-02-11T04:14:02;5.90;99.90
42907;DHT22;28552;51.146;6.576;2023-02-11T04:17:03;5.90;99.90
42907;DHT22;28552;51.146;6.576;2023-02-11T04:20:04;5.90;99.90
42907;DHT22;28552;51.146;6.576;2023-02-11T04:23:05;5.90;99.90
42907;DHT22;28552;51.146;6.576;2023-02-11T04:26:05;5.90;99.90
42907;DHT22;28552;51.146;6.576;2023-02-11T04:29:06;5.80;99.90
42907;DHT22;28552;51.146;6.576;2023-02-11T04:32:07;5.90;99.90
42907;DHT22;28552;51.146;6.576;2023-02-11T04:35:07;5.80;99.90
42907;DHT22;28552;51.146;6.576;2023-02-11T04:38:08;5.90;99.90
42907;DHT22;28552;51.146;6.576;2023-02-11T04:41:08;5.90;99.90
42907;DHT22;28552;51.146;6.576;2023-02-11T04:44:09;5.90;99.90
42907;DHT22;28552;51.146;6.576;2023-02-11T04:47:10;5.80;99.90
42907;DHT22;28552;51.146;6.576;2023-02-11T04:50:12;5.90;99.90
42907;DHT22;28552;51.146;6.576;2023-02-11T04:53:13;5.90;99.90
42907;DHT22;28552;51.146;6.576;2023-02-11T04:56:13;5.90;99.90
42907;DHT22;28552;51.146;6.576;2023-02-11T04:59:14;5.90;99.90
42907;DHT22;28552;51.146;6.576;2023-02-11T05:02:15;5.80;99.90
42907;DHT22;28552;51.146;6.576;2023-02-11T05:05:15;5.90;99.90
42907;DHT22;28552;51.146;6.576;2023-02-11T05:08:16;5.90;99.90
42907;DHT22;28552;51.146;6.576;2023-02-11T05:11:19;5.90;99.90
42907;DHT22;28552;51.146;6.576;2023-02-11T05:14:20;5.90;99.90
42907;DHT22;28552;51.146;6.576;2023-02-11T05:17:20;5.80;99.90
42907;DHT22;28552;51.146;6.576;2023-02-11T05:20:24;5.90;99.90
42907;DHT22;28552;51.146;6.576;2023-02-11T05:23:24;5.80;99.90
42907;DHT22;28552;51.146;6.576;2023-02-11T05:26:25;5.80;99.90
42907;DHT22;28552;51.146;6.576;2023-02-11T05:29:26;5.90;99.90
42907;DHT22;28552;51.146;6.576;2023-02-11T05:32:26;5.80;99.90
42907;DHT22;28552;51.146;6.576;2023-02-11T05:35:27;5.80;99.90
42907;DHT22;28552;51.146;6.576;2023-02-11T05:38:28;5.80;99.90
42907;DHT22;28552;51.146;6.576;2023-02-11T05:41:28;5.80;99.90
42907;DHT22;28552;51.146;6.576;2023-02-11T05:44:29;5.70;99.90
42907;DHT22;28552;51.146;6.576;2023-02-11T05:47:29;5.70;99.90
42907;DHT22;28552;51.146;6.576;2023-02-11T05:50:30;5.70;99.90
42907;DHT22;28552;51.146;6.576;2023-02-11T05:53:30;5.70;99.90
42907;DHT22;28552;51.146;6.576;2023-02-11T05:56:31;5.80;99.90
42907;DHT22;28552;51.146;6.576;2023-02-11T05:59:31;5.70;99.90
42907;DHT22;28552;51.146;6.576;2023-02-11T06:02:32;5.80;99.90
42907;DHT22;28552;51.146;6.576;2023-02-11T06:05:33;5.70;99.90
42907;DHT22;28552;51.146;6.576;2023-02-11T06:08:33;5.80;99.90
42907;DHT22;28552;51.146;6.576;2023-02-11T06:11:34;5.80;99.90
42907;DHT22;28552;51.146;6.576;2023-02-11T06:14:34;5.70;99.90
42907;DHT22;28552;51.146;6.576;2023-02-11T06:17:35;5.70;99.90
42907;DHT22;28552;51.146;6.576;2023-02-11T06:20:37;5.80;99.90
42907;DHT22;28552;51.146;6.576;2023-02-11T06:23:40;5.70;99.90
42907;DHT22;28552;51.146;6.576;2023-02-11T06:26:40;5.70;99.90
42907;DHT22;28552;51.146;6.576;2023-02-11T06:29:41;5.70;99.90
42907;DHT22;28552;51.146;6.576;2023-02-11T06:32:41;5.80;99.90
42907;DHT22;28552;51.146;6.576;2023-02-11T06:35:42;5.80;99.90
42907;DHT22;28552;51.146;6.576;2023-02-11T06:38:43;5.70;99.90
42907;DHT22;28552;51.146;6.576;2023-02-11T06:41:43;5.70;99.90
42907;DHT22;28552;51.146;6.576;2023-02-11T06:44:44;5.70;99.90
42907;DHT22;28552;51.146;6.576;2023-02-11T06:47:44;5.80;99.90
42907;DHT22;28552;51.146;6.576;2023-02-11T06:50:45;5.80;99.90
42907;DHT22;28552;51.146;6.576;2023-02-11T06:53:46;5.80;99.90
42907;DHT22;28552;51.146;6.576;2023-02-11T06:56:46;5.80;99.90
42907;DHT22;28552;51.146;6.576;2023-02-11T06:59:47;5.80;99.90
42907;DHT22;28552;51.146;6.576;2023-02-11T07:02:47;5.80;99.90
42907;DHT22;28552;51.146;6.576;2023-02-11T07:05:48;5.80;99.90
42907;DHT22;28552;51.146;6.576;2023-02-11T07:08:48;5.90;99.90
42907;DHT22;28552;51.146;6.576;2023-02-11T07:11:49;5.90;99.90
42907;DHT22;28552;51.146;6.576;2023-02-11T07:14:49;5.90;99.90
42907;DHT22;28552;51.146;6.576;2023-02-11T07:17:50;5.90;99.90
42907;DHT22;28552;51.146;6.576;2023-02-11T07:20:51;5.90;99.90
42907;DHT22;28552;51.146;6.576;2023-02-11T07:23:51;5.90;99.90
42907;DHT22;28552;51.146;6.576;2023-02-11T07:26:52;5.90;99.90
42907;DHT22;28552;51.146;6.576;2023-02-11T07:29:53;5.90;99.90
42907;DHT22;28552;51.146;6.576;2023-02-11T07:32:55;6.00;99.90
42907;DHT22;28552;51.146;6.576;2023-02-11T07:35:59;5.90;99.90
42907;DHT22;28552;51.146;6.576;2023-02-11T07:38:59;5.90;99.90
42907;DHT22;28552;51.146;6.576;2023-02-11T07:42:00;5.90;99.90
42907;DHT22;28552;51.146;6.576;2023-02-11T07:45:01;6.00;99.90
42907;DHT22;28552;51.146;6.576;2023-02-11T07:48:01;6.00;99.90
42907;DHT22;28552;51.146;6.576;2023-02-11T07:51:11;6.00;99.90
42907;DHT22;28552;51.146;6.576;2023-02-11T07:54:12;6.00;99.90
42907;DHT22;28552;51.146;6.576;2023-02-11T07:57:12;6.00;99.90
42907;DHT22;28552;51.146;6.576;2023-02-11T08:00:13;6.00;99.90
42907;DHT22;28552;51.146;6.576;2023-02-11T08:03:14;6.00;99.90
42907;DHT22;28552;51.146;6.576;2023-02-11T08:06:17;6.00;99.90
42907;DHT22;28552;51.146;6.576;2023-02-11T08:09:19;6.00;99.90
42907;DHT22;28552;51.146;6.576;2023-02-11T08:12:20;6.00;99.90
42907;DHT22;28552;51.146;6.576;2023-02-11T08:15:20;6.10;99.90
42907;DHT22;28552;51.146;6.576;2023-02-11T08:18:21;6.00;99.90
42907;DHT22;28552;51.146;6.576;2023-02-11T08:21:21;6.10;99.90
42907;DHT22;28552;51.146;6.576;2023-02-11T08:24:22;6.10;99.90
42907;DHT22;28552;51.146;6.576;2023-02-11T08:27:23;6.10;99.90
42907;DHT22;28552;51.146;6.576;2023-02-11T08:30:23;6.10;99.90
42907;DHT22;28552;51.146;6.576;2023-02-11T08:33:24;6.20;99.90
42907;DHT22;28552;51.146;6.576;2023-02-11T08:36:27;6.20;99.90
42907;DHT22;28552;51.146;6.576;2023-02-11T08:39:28;6.20;99.90
42907;DHT22;28552;51.146;6.576;2023-02-11T08:42:28;6.20;99.90
42907;DHT22;28552;51.146;6.576;2023-02-11T08:45:29;6.20;99.90
42907;DHT22;28552;51.146;6.576;2023-02-11T08:48:29;6.30;99.90
42907;DHT22;28552;51.146;6.576;2023-02-11T08:51:30;6.30;99.90
42907;DHT22;28552;51.146;6.576;2023-02-11T08:54:31;6.30;99.90
42907;DHT22;28552;51.146;6.576;2023-02-11T08:57:31;6.30;99.90
42907;DHT22;28552;51.146;6.576;2023-02-11T09:00:32;6.40;99.90
42907;DHT22;28552;51.146;6.576;2023-02-11T09:03:32;6.40;99.90
42907;DHT22;28552;51.146;6.576;2023-02-11T09:06:33;6.40;99.90
42907;DHT22;28552;51.146;6.576;2023-02-11T09:09:34;6.40;99.90
42907;DHT22;28552;51.146;6.576;2023-02-11T09:12:34;6.40;99.90
42907;DHT22;28552;51.146;6.576;2023-02-11T09:15:35;6.40;99.90
42907;DHT22;28552;51.146;6.576;2023-02-11T09:18:35;6.50;99.90
42907;DHT22;28552;51.146;6.576;2023-02-11T09:21:36;6.50;99.90
42907;DHT22;28552;51.146;6.576;2023-02-11T09:24:36;6.50;99.90
42907;DHT22;28552;51.146;6.576;2023-02-11T09:27:37;6.50;99.90
42907;DHT22;28552;51.146;6.576;2023-02-11T09:30:38;6.60;99.90
42907;DHT22;28552;51.146;6.576;2023-02-11T09:33:40;6.60;99.90
42907;DHT22;28552;51.146;6.576;2023-02-11T09:36:46;6.60;99.90
42907;DHT22;28552;51.146;6.576;2023-02-11T09:39:47;6.70;99.90
42907;DHT22;28552;51.146;6.576;2023-02-11T09:42:56;6.70;99.90
42907;DHT22;28552;51.146;6.576;2023-02-11T09:46:01;6.70;99.90
42907;DHT22;28552;51.146;6.576;2023-02-11T09:49:03;6.70;99.90
42907;DHT22;28552;51.146;6.576;2023-02-11T09:58:33;6.70;99.90
42907;DHT22;28552;51.146;6.576;2023-02-11T10:08:38;6.80;99.90
42907;DHT22;28552;51.146;6.576;2023-02-11T10:11:47;6.80;99.90
42907;DHT22;28552;51.146;6.576;2023-02-11T10:15:07;6.80;99.90
42907;DHT22;28552;51.146;6.576;2023-02-11T10:18:25;6.70;99.90
42907;DHT22;28552;51.146;6.576;2023-02-11T10:24:54;6.70;99.90
42907;DHT22;28552;51.146;6.576;2023-02-11T10:27:58;6.70;99.90
42907;DHT22;28552;51.146;6.576;2023-02-11T10:31:04;6.70;99.90
42907;DHT22;28552;51.146;6.576;2023-02-11T10:34:09;6.70;99.90
42907;DHT22;28552;51.146;6.576;2023-02-11T10:37:12;6.70;99.90
42907;DHT22;28552;51.146;6.576;2023-02-11T10:40:17;6.70;99.90
42907;DHT22;28552;51.146;6.576;2023-02-11T10:43:20;6.70;99.90
42907;DHT22;28552;51.146;6.576;2023-02-11T10:46:26;6.80;99.90
42907;DHT22;28552;51.146;6.576;2023-02-11T10:49:34;6.70;99.90
42907;DHT22;28552;51.146;6.576;2023-02-11T10:52:35;6.80;99.90
42907;DHT22;28552;51.146;6.576;2023-02-11T10:55:35;6.80;99.90
42907;DHT22;28552;51.146;6.576;2023-02-11T10:58:40;6.80;99.90
42907;DHT22;28552;51.146;6.576;2023-02-11T11:01:49;6.80;99.90
42907;DHT22;28552;51.146;6.576;2023-02-11T11:04:55;6.80;99.90
42907;DHT22;28552;51.146;6.576;2023-02-11T11:07:59;6.90;99.90
42907;DHT22;28552;51.146;6.576;2023-02-11T11:11:06;6.90;99.90
42907;DHT22;28552;51.146;6.576;2023-02-11T11:14:17;7.00;99.90
42907;DHT22;28552;51.146;6.576;2023-02-11T11:17:18;7.00;99.90
42907;DHT22;28552;51.146;6.576;2023-02-11T11:20:24;7.00;99.90
42907;DHT22;28552;51.146;6.576;2023-02-11T11:23:29;7.10;99.90
42907;DHT22;28552;51.146;6.576;2023-02-11T11:26:46;7.10;99.90
42907;DHT22;28552;51.146;6.576;2023-02-11T11:29:50;7.10;99.90
42907;DHT22;28552;51.146;6.576;2023-02-11T11:32:51;7.00;99.90
42907;DHT22;28552;51.146;6.576;2023-02-11T11:36:07;7.00;99.90
42907;DHT22;28552;51.146;6.576;2023-02-11T11:39:20;7.00;99.90
42907;DHT22;28552;51.146;6.576;2023-02-11T11:45:26;7.10;99.90
42907;DHT22;28552;51.146;6.576;2023-02-11T11:51:27;7.20;99.90
42907;DHT22;28552;51.146;6.576;2023-02-11T11:54:30;7.20;99.90
42907;DHT22;28552;51.146;6.576;2023-02-11T11:57:33;7.30;99.90
42907;DHT22;28552;51.146;6.576;2023-02-11T12:00:58;7.30;99.90
42907;DHT22;28552;51.146;6.576;2023-02-11T12:10:43;7.40;99.90
42907;DHT22;28552;51.146;6.576;2023-02-11T12:14:01;7.40;99.90
42907;DHT22;28552;51.146;6.576;2023-02-11T12:23:45;7.40;99.90
42907;DHT22;28552;51.146;6.576;2023-02-11T12:27:02;7.50;99.90
42907;DHT22;28552;51.146;6.576;2023-02-11T12:43:15;7.40;99.90
42907;DHT22;28552;51.146;6.576;2023-02-11T12:46:33;7.40;99.90
42907;DHT22;28552;51.146;6.576;2023-02-11T12:50:03;7.50;99.90
42907;DHT22;28552;51.146;6.576;2023-02-11T12:53:26;7.50;99.90
42907;DHT22;28552;51.146;6.576;2023-02-11T12:56:36;7.60;99.90
42907;DHT22;28552;51.146;6.576;2023-02-11T13:03:17;7.70;99.90
42907;DHT22;28552;51.146;6.576;2023-02-11T13:06:28;7.80;99.90
42907;DHT22;28552;51.146;6.576;2023-02-11T13:09:35;7.80;99.90
42907;DHT22;28552;51.146;6.576;2023-02-11T13:12:38;7.80;99.90
42907;DHT22;28552;51.146;6.576;2023-02-11T13:16:06;7.80;99.90
42907;DHT22;28552;51.146;6.576;2023-02-11T13:19:17;7.80;99.90
42907;DHT22;28552;51.146;6.576;2023-02-11T13:22:31;7.80;99.90
42907;DHT22;28552;51.146;6.576;2023-02-11T13:25:47;7.80;99.90
42907;DHT22;28552;51.146;6.576;2023-02-11T13:29:07;7.90;99.90
42907;DHT22;28552;51.146;6.576;2023-02-11T13:32:11;8.00;99.90
42907;DHT22;28552;51.146;6.576;2023-02-11T13:35:33;8.00;99.90
42907;DHT22;28552;51.146;6.576;2023-02-11T13:38:35;8.10;99.90
42907;DHT22;28552;51.146;6.576;2023-02-11T13:41:39;8.00;99.90
42907;DHT22;28552;51.146;6.576;2023-02-11T13:44:40;8.00;99.90
42907;DHT22;28552;51.146;6.576;2023-02-11T13:47:41;8.00;99.90
42907;DHT22;28552;51.146;6.576;2023-02-11T13:50:47;8.00;99.90
42907;DHT22;28552;51.146;6.576;2023-02-11T13:53:53;8.10;99.90
42907;DHT22;28552;51.146;6.576;2023-02-11T13:57:15;8.10;99.90
42907;DHT22;28552;51.146;6.576;2023-02-11T14:00:43;8.10;99.90
42907;DHT22;28552;51.146;6.576;2023-02-11T14:04:05;8.10;99.90
42907;DHT22;28552;51.146;6.576;2023-02-11T14:07:32;8.20;99.90
42907;DHT22;28552;51.146;6.576;2023-02-11T14:10:49;8.20;99.90
42907;DHT22;28552;51.146;6.576;2023-02-11T14:23:43;8.40;99.90
42907;DHT22;28552;51.146;6.576;2023-02-11T14:27:06;8.40;99.90
42907;DHT22;28552;51.146;6.576;2023-02-11T14:33:21;8.40;99.90
42907;DHT22;28552;51.146;6.576;2023-02-11T14:40:02;8.40;99.90
42907;DHT22;28552;51.146;6.576;2023-02-11T14:46:30;8.30;99.90
42907;DHT22;28552;51.146;6.576;2023-02-11T14:49:34;8.30;99.90
42907;DHT22;28552;51.146;6.576;2023-02-11T14:52:36;8.20;99.90
42907;DHT22;28552;51.146;6.576;2023-02-11T14:55:41;8.20;99.90
42907;DHT22;28552;51.146;6.576;2023-02-11T14:58:46;8.20;99.90
42907;DHT22;28552;51.146;6.576;2023-02-11T15:01:50;8.30;99.90
42907;DHT22;28552;51.146;6.576;2023-02-11T15:04:51;8.40;99.90
42907;DHT22;28552;51.146;6.576;2023-02-11T15:07:54;8.50;99.90
42907;DHT22;28552;51.146;6.576;2023-02-11T15:10:56;8.50;99.90
42907;DHT22;28552;51.146;6.576;2023-02-11T15:14:05;8.40;99.90
42907;DHT22;28552;51.146;6.576;2023-02-11T15:17:07;8.40;99.90
42907;DHT22;28552;51.146;6.576;2023-02-11T15:20:19;8.40;99.90
42907;DHT22;28552;51.146;6.576;2023-02-11T15:23:24;8.40;99.90
42907;DHT22;28552;51.146;6.576;2023-02-11T15:26:27;8.40;99.90
42907;DHT22;28552;51.146;6.576;2023-02-11T15:29:34;8.40;99.90
42907;DHT22;28552;51.146;6.576;2023-02-11T15:32:35;8.40;99.90
42907;DHT22;28552;51.146;6.576;2023-02-11T15:35:40;8.30;99.90
42907;DHT22;28552;51.146;6.576;2023-02-11T15:38:42;8.30;99.90
42907;DHT22;28552;51.146;6.576;2023-02-11T15:41:42;8.30;99.90
42907;DHT22;28552;51.146;6.576;2023-02-11T15:44:44;8.20;99.90
42907;DHT22;28552;51.146;6.576;2023-02-11T15:47:50;8.20;99.90
42907;DHT22;28552;51.146;6.576;2023-02-11T15:50:54;8.20;99.90
42907;DHT22;28552;51.146;6.576;2023-02-11T15:53:58;8.10;99.90
42907;DHT22;28552;51.146;6.576;2023-02-11T15:57:03;8.10;99.90
42907;DHT22;28552;51.146;6.576;2023-02-11T16:00:13;8.10;99.90
42907;DHT22;28552;51.146;6.576;2023-02-11T16:03:23;8.10;99.90
42907;DHT22;28552;51.146;6.576;2023-02-11T16:06:26;8.00;99.90
42907;DHT22;28552;51.146;6.576;2023-02-11T16:09:35;8.00;99.90
42907;DHT22;28552;51.146;6.576;2023-02-11T16:12:36;8.00;99.90
42907;DHT22;28552;51.146;6.576;2023-02-11T16:15:47;8.00;99.90
42907;DHT22;28552;51.146;6.576;2023-02-11T16:18:51;8.00;99.90
42907;DHT22;28552;51.146;6.576;2023-02-11T16:21:54;7.90;99.90
42907;DHT22;28552;51.146;6.576;2023-02-11T16:24:57;7.90;99.90
42907;DHT22;28552;51.146;6.576;2023-02-11T16:27:58;7.90;99.90
42907;DHT22;28552;51.146;6.576;2023-02-11T16:30:59;7.80;99.90
42907;DHT22;28552;51.146;6.576;2023-02-11T16:33:59;7.80;99.90
42907;DHT22;28552;51.146;6.576;2023-02-11T16:37:03;7.80;99.90
42907;DHT22;28552;51.146;6.576;2023-02-11T16:40:04;7.80;99.90
42907;DHT22;28552;51.146;6.576;2023-02-11T16:43:05;7.80;99.90
42907;DHT22;28552;51.146;6.576;2023-02-11T16:46:05;7.70;99.90
42907;DHT22;28552;51.146;6.576;2023-02-11T16:49:19;7.70;99.90
42907;DHT22;28552;51.146;6.576;2023-02-11T16:52:20;7.60;99.90
42907;DHT22;28552;51.146;6.576;2023-02-11T16:55:21;7.60;99.90
42907;DHT22;28552;51.146;6.576;2023-02-11T16:58:21;7.60;99.90
42907;DHT22;28552;51.146;6.576;2023-02-11T17:01:22;7.60;99.90
42907;DHT22;28552;51.146;6.576;2023-02-11T17:04:25;7.60;99.90
42907;DHT22;28552;51.146;6.576;2023-02-11T17:07:26;7.60;99.90
42907;DHT22;28552;51.146;6.576;2023-02-11T17:10:27;7.60;99.90
42907;DHT22;28552;51.146;6.576;2023-02-11T17:13:28;7.60;99.90
42907;DHT22;28552;51.146;6.576;2023-02-11T17:16:28;7.60;99.90
42907;DHT22;28552;51.146;6.576;2023-02-11T17:19:29;7.60;99.90
42907;DHT22;28552;51.146;6.576;2023-02-11T17:22:30;7.60;99.90
42907;DHT22;28552;51.146;6.576;2023-02-11T17:25:30;7.50;99.90
42907;DHT22;28552;51.146;6.576;2023-02-11T17:28:32;7.50;99.90
42907;DHT22;28552;51.146;6.576;2023-02-11T17:31:33;7.50;99.90
42907;DHT22;28552;51.146;6.576;2023-02-11T17:34:34;7.40;99.90
42907;DHT22;28552;51.146;6.576;2023-02-11T17:37:34;7.40;99.90
42907;DHT22;28552;51.146;6.576;2023-02-11T17:40:35;7.40;99.90
42907;DHT22;28552;51.146;6.576;2023-02-11T17:43:36;7.40;99.90
42907;DHT22;28552;51.146;6.576;2023-02-11T17:46:36;7.40;99.90
42907;DHT22;28552;51.146;6.576;2023-02-11T17:49:38;7.40;99.90
42907;DHT22;28552;51.146;6.576;2023-02-11T17:52:39;7.40;99.90
42907;DHT22;28552;51.146;6.576;2023-02-11T17:55:39;7.40;99.90
42907;DHT22;28552;51.146;6.576;2023-02-11T17:58:40;7.40;99.90
42907;DHT22;28552;51.146;6.576;2023-02-11T18:01:42;7.30;99.90
42907;DHT22;28552;51.146;6.576;2023-02-11T18:04:42;7.30;99.90
42907;DHT22;28552;51.146;6.576;2023-02-11T18:07:43;7.30;99.90
42907;DHT22;28552;51.146;6.576;2023-02-11T18:10:43;7.40;99.90
42907;DHT22;28552;51.146;6.576;2023-02-11T18:13:44;7.40;99.90
42907;DHT22;28552;51.146;6.576;2023-02-11T18:16:45;7.40;99.90
42907;DHT22;28552;51.146;6.576;2023-02-11T18:19:48;7.40;99.90
42907;DHT22;28552;51.146;6.576;2023-02-11T18:22:49;7.40;99.90
42907;DHT22;28552;51.146;6.576;2023-02-11T18:25:49;7.40;99.90
42907;DHT22;28552;51.146;6.576;2023-02-11T18:28:50;7.40;99.90
42907;DHT22;28552;51.146;6.576;2023-02-11T18:31:55;7.40;99.90
42907;DHT22;28552;51.146;6.576;2023-02-11T18:34:56;7.40;99.90
42907;DHT22;28552;51.146;6.576;2023-02-11T18:37:57;7.40;99.90
42907;DHT22;28552;51.146;6.576;2023-02-11T18:40:57;7.40;99.90
42907;DHT22;28552;51.146;6.576;2023-02-11T18:43:58;7.40;99.90
42907;DHT22;28552;51.146;6.576;2023-02-11T18:47:02;7.40;99.90
42907;DHT22;28552;51.146;6.576;2023-02-11T18:50:04;7.40;99.90
42907;DHT22;28552;51.146;6.576;2023-02-11T18:53:05;7.40;99.90
42907;DHT22;28552;51.146;6.576;2023-02-11T18:56:08;7.40;99.90
42907;DHT22;28552;51.146;6.576;2023-02-11T18:59:10;7.40;99.90
42907;DHT22;28552;51.146;6.576;2023-02-11T19:02:10;7.40;99.90
42907;DHT22;28552;51.146;6.576;2023-02-11T19:05:11;7.40;99.90
42907;DHT22;28552;51.146;6.576;2023-02-11T19:08:12;7.40;99.90
42907;DHT22;28552;51.146;6.576;2023-02-11T19:11:14;7.40;99.90
42907;DHT22;28552;51.146;6.576;2023-02-11T19:14:21;7.30;99.90
42907;DHT22;28552;51.146;6.576;2023-02-11T19:17:22;7.40;99.90
42907;DHT22;28552;51.146;6.576;2023-02-11T19:20:23;7.40;99.90
42907;DHT22;28552;51.146;6.576;2023-02-11T19:23:23;7.40;99.90
42907;DHT22;28552;51.146;6.576;2023-02-11T19:26:26;7.30;99.90
42907;DHT22;28552;51.146;6.576;2023-02-11T19:29:27;7.30;99.90
42907;DHT22;28552;51.146;6.576;2023-02-11T19:32:28;7.30;99.90
42907;DHT22;28552;51.146;6.576;2023-02-11T19:35:29;7.30;99.90
42907;DHT22;28552;51.146;6.576;2023-02-11T19:38:32;7.30;99.90
42907;DHT22;28552;51.146;6.576;2023-02-11T19:41:33;7.30;99.90
42907;DHT22;28552;51.146;6.576;2023-02-11T19:44:34;7.30;99.90
42907;DHT22;28552;51.146;6.576;2023-02-11T19:47:35;7.30;99.90
42907;DHT22;28552;51.146;6.576;2023-02-11T19:50:35;7.30;99.90
42907;DHT22;28552;51.146;6.576;2023-02-11T19:53:36;7.30;99.90
42907;DHT22;28552;51.146;6.576;2023-02-11T19:56:36;7.30;99.90
42907;DHT22;28552;51.146;6.576;2023-02-11T19:59:37;7.40;99.90
42907;DHT22;28552;51.146;6.576;2023-02-11T20:02:38;7.30;99.90
42907;DHT22;28552;51.146;6.576;2023-02-11T20:05:39;7.30;99.90
42907;DHT22;28552;51.146;6.576;2023-02-11T20:08:42;7.30;99.90
42907;DHT22;28552;51.146;6.576;2023-02-11T20:11:43;7.30;99.90
42907;DHT22;28552;51.146;6.576;2023-02-11T20:14:44;7.30;99.90
42907;DHT22;28552;51.146;6.576;2023-02-11T20:17:44;7.30;99.90
42907;DHT22;28552;51.146;6.576;2023-02-11T20:20:45;7.30;99.90
42907;DHT22;28552;51.146;6.576;2023-02-11T20:23:46;7.30;99.90
42907;DHT22;28552;51.146;6.576;2023-02-11T20:26:47;7.30;99.90
42907;DHT22;28552;51.146;6.576;2023-02-11T20:29:47;7.30;99.90
42907;DHT22;28552;51.146;6.576;2023-02-11T20:32:48;7.30;99.90
42907;DHT22;28552;51.146;6.576;2023-02-11T20:35:58;7.30;99.90
42907;DHT22;28552;51.146;6.576;2023-02-11T20:38:59;7.30;99.90
42907;DHT22;28552;51.146;6.576;2023-02-11T20:42:00;7.20;99.90
42907;DHT22;28552;51.146;6.576;2023-02-11T20:45:00;7.30;99.90
42907;DHT22;28552;51.146;6.576;2023-02-11T20:48:01;7.30;99.90
42907;DHT22;28552;51.146;6.576;2023-02-11T20:51:05;7.30;99.90
42907;DHT22;28552;51.146;6.576;2023-02-11T20:54:09;7.30;99.90
42907;DHT22;28552;51.146;6.576;2023-02-11T20:57:10;7.30;99.90
42907;DHT22;28552;51.146;6.576;2023-02-11T21:00:11;7.30;99.90
42907;DHT22;28552;51.146;6.576;2023-02-11T21:03:12;7.30;99.90
42907;DHT22;28552;51.146;6.576;2023-02-11T21:06:12;7.30;99.90
42907;DHT22;28552;51.146;6.576;2023-02-11T21:09:16;7.30;99.90
42907;DHT22;28552;51.146;6.576;2023-02-11T21:12:16;7.30;99.90
42907;DHT22;28552;51.146;6.576;2023-02-11T21:15:17;7.30;99.90
42907;DHT22;28552;51.146;6.576;2023-02-11T21:18:18;7.30;99.90